Terminal Aerodrome Forecast
Issued by NWS Louisville, KY

Home | Current Version | Previous Version | Text Only | Print | Product List | Glossary On
Versions: 1 2 3 4 5 6 7 8 9 10 11 12 13 14 15 16
000
FTUS43 KLMK 272300
TAFBWG
TAF
KBWG 272320Z 2800/2824 13004KT P6SM SCT040 BKN200
     FM280930 00000KT 6SM HZ BKN040
     FM281330 18005KT P6SM BKN040=

USA.gov is the U.S. government's official web portal to all federal, state and local government web resources and services.